Stateline, Nevada
Current Conditions -  °F | °C
As of 7:53 PM on Wednesday 22 Oct 2014 (Local Time) from KTVL Reporting Station
Clear Clear  
Wind Chill: 52°   Ceiling: Unl
Heat Index: 52°   Visibility: 10mi
Dew Point: 29°   Wind: 8mph
Humidity: 41%   Direction: 210°SSW
Pressure: 30.17"   Gusts: NA
Location:  38.97°N, 119.94°W
Report Text: KTVL 230253Z AUTO 21007KT 10SM CLR 11/M02 A3017 RMK AO2 SLP197 T01111017 52005
Loading
Personal Weather Stations






























Interactive Weather Map
Tropical Storm Tracking
New forecast layout! Learn more

10-Day Weather Forecast

Advertisements
Track Severe Weather on mobile